createdAt,value
2023-03-06T00:00:02.708Z,547.00
2023-03-06T00:01:02.617Z,550.00
2023-03-06T00:02:02.478Z,549.00
2023-03-06T00:03:02.345Z,550.00
2023-03-06T00:04:02.328Z,548.00
2023-03-06T00:05:02.247Z,548.00
2023-03-06T00:06:02.107Z,549.00
2023-03-06T00:07:01.928Z,552.00
2023-03-06T00:08:03.769Z,547.00
2023-03-06T00:09:01.764Z,548.00
2023-03-06T00:10:01.695Z,550.00
2023-03-06T00:11:01.535Z,549.00
2023-03-06T00:12:01.501Z,551.00
2023-03-06T00:13:01.305Z,548.00
2023-03-06T00:14:01.252Z,545.00
2023-03-06T00:15:01.189Z,547.00
2023-03-06T00:16:01.168Z,546.00
2023-03-06T00:17:00.886Z,549.00
2023-03-06T00:18:00.887Z,547.00
2023-03-06T00:19:00.712Z,548.00
2023-03-06T00:20:00.615Z,547.00
2023-03-06T00:21:00.495Z,550.00
2023-03-06T00:22:02.211Z,553.00
2023-03-06T00:23:00.325Z,551.00
2023-03-06T00:24:00.750Z,550.00
2023-03-06T00:25:00.229Z,547.00
2023-03-06T00:25:59.987Z,547.00
2023-03-06T00:26:59.939Z,550.00
2023-03-06T00:27:59.774Z,549.00
2023-03-06T00:28:59.686Z,548.00
2023-03-06T00:29:59.612Z,550.00
2023-03-06T00:30:59.538Z,545.00
2023-03-06T00:32:01.309Z,550.00
2023-03-06T00:32:59.540Z,549.00
2023-03-06T00:33:59.403Z,549.00
2023-03-06T00:34:59.099Z,551.00
2023-03-06T00:35:59.810Z,547.00
2023-03-06T00:36:58.905Z,550.00
2023-03-06T00:37:59.814Z,545.00
2023-03-06T00:38:58.709Z,548.00
2023-03-06T00:39:58.675Z,549.00
2023-03-06T00:40:59.228Z,550.00
2023-03-06T00:41:58.502Z,551.00
2023-03-06T00:42:58.337Z,546.00
2023-03-06T00:43:58.271Z,550.00
2023-03-06T00:45:00.074Z,548.00
2023-03-06T00:45:58.027Z,549.00
2023-03-06T00:46:57.995Z,549.00
2023-03-06T00:47:57.779Z,550.00
2023-03-06T00:48:57.705Z,548.00
2023-03-06T00:49:57.578Z,545.00
2023-03-06T00:50:57.496Z,547.00
2023-03-06T00:51:57.354Z,550.00
2023-03-06T00:52:57.266Z,550.00
2023-03-06T00:53:57.150Z,548.00
2023-03-06T00:54:57.121Z,546.00
2023-03-06T00:55:56.956Z,548.00
2023-03-06T00:56:56.844Z,547.00
2023-03-06T00:57:56.757Z,547.00
2023-03-06T00:58:56.639Z,547.00
2023-03-06T00:59:56.588Z,551.00
2023-03-06T01:00:56.742Z,548.00
2023-03-06T01:01:56.402Z,549.00
2023-03-06T01:02:57.232Z,544.00
2023-03-06T01:03:56.164Z,547.00
2023-03-06T01:04:56.065Z,545.00
2023-03-06T01:05:55.958Z,545.00
2023-03-06T01:06:55.848Z,549.00
2023-03-06T01:07:55.770Z,548.00
2023-03-06T01:08:55.700Z,547.00
2023-03-06T01:09:55.543Z,548.00
2023-03-06T01:10:55.714Z,546.00
2023-03-06T01:11:55.360Z,545.00
2023-03-06T01:12:55.270Z,547.00
2023-03-06T01:13:55.141Z,545.00
2023-03-06T01:14:55.052Z,546.00
2023-03-06T01:15:55.001Z,551.00
2023-03-06T01:16:54.851Z,548.00
2023-03-06T01:17:54.787Z,550.00
2023-03-06T01:18:54.632Z,549.00
2023-03-06T01:19:54.531Z,545.00
2023-03-06T01:20:54.466Z,547.00
2023-03-06T01:21:54.329Z,546.00
2023-03-06T01:22:54.260Z,544.00
2023-03-06T01:23:54.147Z,542.00
2023-03-06T01:24:54.046Z,545.00
2023-03-06T01:25:53.953Z,546.00
2023-03-06T01:26:53.859Z,543.00
2023-03-06T01:27:53.770Z,541.00
2023-03-06T01:28:53.655Z,546.00
2023-03-06T01:29:53.624Z,546.00
2023-03-06T01:30:53.473Z,543.00
2023-03-06T01:31:53.447Z,548.00
2023-03-06T01:32:53.236Z,547.00
2023-03-06T01:33:53.121Z,547.00
2023-03-06T01:34:53.041Z,547.00
2023-03-06T01:35:53.093Z,547.00
2023-03-06T01:36:53.047Z,548.00
2023-03-06T01:37:52.723Z,545.00
2023-03-06T01:38:52.619Z,543.00
2023-03-06T01:39:52.522Z,548.00
2023-03-06T01:40:52.421Z,545.00
2023-03-06T01:41:52.331Z,548.00
2023-03-06T01:42:52.224Z,544.00
2023-03-06T01:43:52.140Z,546.00
2023-03-06T01:44:52.039Z,547.00
2023-03-06T01:45:51.956Z,547.00
2023-03-06T01:46:51.845Z,547.00
2023-03-06T01:47:51.980Z,550.00
2023-03-06T01:48:51.638Z,544.00
2023-03-06T01:49:51.545Z,543.00
2023-03-06T01:50:51.442Z,545.00
2023-03-06T01:51:51.403Z,545.00
2023-03-06T01:52:51.311Z,545.00
2023-03-06T01:53:51.178Z,545.00
2023-03-06T01:54:51.075Z,544.00
2023-03-06T01:55:50.934Z,550.00
2023-03-06T01:56:50.868Z,542.00
2023-03-06T01:57:50.732Z,546.00
2023-03-06T01:58:50.637Z,543.00
2023-03-06T01:59:50.567Z,546.00
2023-03-06T02:00:50.459Z,547.00
2023-03-06T02:01:50.334Z,544.00
2023-03-06T02:02:50.238Z,544.00
2023-03-06T02:03:50.254Z,544.00
2023-03-06T02:04:50.060Z,544.00
2023-03-06T02:05:49.931Z,543.00
2023-03-06T02:06:50.377Z,548.00
2023-03-06T02:07:49.726Z,548.00
2023-03-06T02:08:49.640Z,543.00
2023-03-06T02:09:49.528Z,536.00
2023-03-06T02:10:49.476Z,540.00
2023-03-06T02:11:49.388Z,543.00
2023-03-06T02:12:49.254Z,537.00
2023-03-06T02:13:49.138Z,536.00
2023-03-06T02:14:49.072Z,539.00
2023-03-06T02:15:48.932Z,534.00
2023-03-06T02:16:48.864Z,535.00
2023-03-06T02:17:48.714Z,537.00
2023-03-06T02:18:48.790Z,540.00
2023-03-06T02:19:48.519Z,530.00
2023-03-06T02:20:48.514Z,540.00
2023-03-06T02:21:48.314Z,534.00
2023-03-06T02:22:48.219Z,531.00
2023-03-06T02:23:48.115Z,527.00
2023-03-06T02:24:48.000Z,531.00
2023-03-06T02:25:47.981Z,532.00
2023-03-06T02:26:47.828Z,529.00
2023-03-06T02:27:47.893Z,536.00
2023-03-06T02:28:47.635Z,527.00
2023-03-06T02:29:47.553Z,518.00
2023-03-06T02:30:47.511Z,524.00
2023-03-06T02:31:47.351Z,527.00
2023-03-06T02:32:47.244Z,518.00
2023-03-06T02:33:47.151Z,519.00
2023-03-06T02:34:47.057Z,522.00
2023-03-06T02:35:46.951Z,522.00
2023-03-06T02:36:46.914Z,521.00
2023-03-06T02:37:46.789Z,530.00
2023-03-06T02:38:46.690Z,523.00
2023-03-06T02:39:46.597Z,510.00
2023-03-06T02:40:46.489Z,502.00
2023-03-06T02:41:46.391Z,500.00
2023-03-06T02:42:46.350Z,503.00
2023-03-06T02:43:46.212Z,498.00
2023-03-06T02:44:46.136Z,501.00
2023-03-06T02:45:46.030Z,500.00
2023-03-06T02:46:45.939Z,516.00
2023-03-06T02:47:45.878Z,534.00
2023-03-06T02:48:45.785Z,541.00
2023-03-06T02:49:45.651Z,555.00
2023-03-06T02:50:45.615Z,556.00
2023-03-06T02:51:45.467Z,555.00
2023-03-06T02:52:45.414Z,550.00
2023-03-06T03:17:45.848Z,584.00
2023-03-06T04:27:36.544Z,501.00
2023-03-06T04:28:36.417Z,517.00
2023-03-06T04:29:36.324Z,507.00
2023-03-06T04:30:36.211Z,511.00
2023-03-06T04:31:36.144Z,507.00
2023-03-06T04:32:36.060Z,504.00
2023-03-06T04:33:35.953Z,521.00
2023-03-06T04:34:35.966Z,536.00
2023-03-06T04:35:35.795Z,548.00
2023-03-06T04:36:35.732Z,573.00
2023-03-06T04:37:35.612Z,579.00
2023-03-06T04:38:35.575Z,589.00
2023-03-06T04:39:35.471Z,590.00
2023-03-06T04:40:35.353Z,594.00
2023-03-06T05:35:30.454Z,859.00
2023-03-06T06:25:25.836Z,618.00
2023-03-06T06:26:25.795Z,620.00
2023-03-06T06:29:25.481Z,614.00
2023-03-06T06:35:25.193Z,599.00
2023-03-06T06:36:24.945Z,594.00
2023-03-06T06:37:24.849Z,580.00
2023-03-06T06:39:24.654Z,560.00
2023-03-06T06:40:25.432Z,570.00
2023-03-06T06:41:46.044Z,588.00
2023-03-06T06:42:33.732Z,589.00
2023-03-06T06:43:25.299Z,589.00
2023-03-06T06:44:24.265Z,580.00
2023-03-06T06:45:24.213Z,590.00
2023-03-06T06:47:10.821Z,590.00
2023-03-06T06:49:23.944Z,400.00
2023-03-06T06:50:23.995Z,400.00
2023-03-06T06:51:23.934Z,400.00
2023-03-06T06:52:23.798Z,400.00
2023-03-06T06:53:24.938Z,400.00
2023-03-06T06:54:23.626Z,403.00
2023-03-06T06:55:23.589Z,432.00
2023-03-06T06:56:23.617Z,462.00
2023-03-06T06:57:23.432Z,504.00
2023-03-06T06:58:23.482Z,505.00
2023-03-06T06:59:23.465Z,518.00
2023-03-06T07:00:23.416Z,530.00
2023-03-06T07:01:23.530Z,522.00
2023-03-06T07:02:23.864Z,499.00
2023-03-06T07:03:23.212Z,498.00
2023-03-06T07:04:24.021Z,500.00
2023-03-06T07:06:23.859Z,503.00
2023-03-06T07:07:25.425Z,505.00
2023-03-06T07:08:23.381Z,502.00
2023-03-06T07:09:22.888Z,503.00
2023-03-06T07:10:23.719Z,560.00
2023-03-06T07:12:23.678Z,561.00
2023-03-06T07:13:23.403Z,563.00
2023-03-06T07:14:23.442Z,553.00
2023-03-06T07:15:22.882Z,528.00
2023-03-06T07:16:23.529Z,500.00
2023-03-06T07:17:22.961Z,500.00
2023-03-06T07:18:23.462Z,500.00
2023-03-06T07:19:22.907Z,500.00
2023-03-06T07:20:24.102Z,500.00
2023-03-06T07:21:22.805Z,509.00
2023-03-06T07:22:22.941Z,531.00
2023-03-06T07:23:22.608Z,534.00
2023-03-06T07:24:22.486Z,509.00
2023-03-06T07:25:22.551Z,500.00
2023-03-06T07:26:22.436Z,502.00
2023-03-06T07:27:22.435Z,502.00
2023-03-06T07:28:22.559Z,500.00
2023-03-06T07:29:23.188Z,500.00
2023-03-06T07:30:22.448Z,511.00
2023-03-06T07:31:22.403Z,500.00
2023-03-06T07:32:22.419Z,504.00
2023-03-06T07:34:22.903Z,504.00
2023-03-06T07:35:23.207Z,521.00
2023-03-06T07:36:22.360Z,534.00
2023-03-06T07:37:22.619Z,535.00
2023-03-06T07:38:22.177Z,576.00
2023-03-06T07:39:22.256Z,576.00
2023-03-06T07:40:22.436Z,579.00
2023-03-06T07:41:22.758Z,589.00
2023-03-06T07:42:22.072Z,577.00
2023-03-06T07:43:22.970Z,585.00
2023-03-06T07:44:23.558Z,596.00
2023-03-06T07:45:23.075Z,601.00
2023-03-06T07:47:21.987Z,592.00
2023-03-06T07:49:22.021Z,586.00
2023-03-06T07:50:21.966Z,605.00
2023-03-06T07:51:21.885Z,608.00
2023-03-06T07:52:21.959Z,631.00
2023-03-06T07:53:22.032Z,724.00
2023-03-06T07:54:21.765Z,936.00
2023-03-06T07:55:21.851Z,1227.00
2023-03-06T07:56:21.832Z,1242.00
2023-03-06T07:57:21.691Z,1254.00
2023-03-06T07:58:22.473Z,1254.00
2023-03-06T07:59:22.425Z,1289.00
2023-03-06T08:00:21.894Z,1291.00
2023-03-06T08:01:21.538Z,1311.00
2023-03-06T08:02:21.461Z,1387.00
2023-03-06T08:03:21.502Z,1301.00
2023-03-06T08:04:21.371Z,1354.00
2023-03-06T08:05:21.271Z,1485.00
2023-03-06T08:06:21.313Z,1638.00
2023-03-06T08:07:21.238Z,1930.00
2023-03-06T08:08:21.449Z,1963.00
2023-03-06T08:09:21.158Z,2005.00
2023-03-06T08:10:21.037Z,2068.00
2023-03-06T08:11:20.915Z,2168.00
2023-03-06T08:12:20.940Z,2204.00
2023-03-06T08:13:21.109Z,2232.00
2023-03-06T08:14:20.942Z,2268.00
2023-03-06T08:15:20.672Z,2379.00
2023-03-06T08:16:20.669Z,2381.00
2023-03-06T08:17:20.730Z,2395.00
2023-03-06T08:18:20.588Z,2417.00
2023-03-06T08:19:20.680Z,2485.00
2023-03-06T08:20:20.511Z,2538.00
2023-03-06T08:21:21.108Z,2560.00
2023-03-06T08:22:20.276Z,2597.00
2023-03-06T08:23:21.053Z,2565.00
2023-03-06T08:24:20.131Z,2108.00
2023-03-06T08:25:20.083Z,1379.00
2023-03-06T08:26:20.946Z,1290.00
2023-03-06T08:27:19.997Z,1435.00
2023-03-06T08:28:19.863Z,1715.00
2023-03-06T08:29:19.813Z,1931.00
2023-03-06T08:30:19.982Z,1970.00
2023-03-06T08:31:19.820Z,1949.00
2023-03-06T08:32:19.679Z,1936.00
2023-03-06T08:33:19.570Z,1915.00
2023-03-06T08:34:19.609Z,1913.00
2023-03-06T08:35:19.465Z,1913.00
2023-03-06T08:36:19.414Z,1906.00
2023-03-06T08:37:19.397Z,1966.00
2023-03-06T08:38:19.449Z,1973.00
2023-03-06T08:39:19.302Z,1992.00
2023-03-06T08:40:19.144Z,2029.00
2023-03-06T08:41:20.278Z,1978.00
2023-03-06T08:42:20.939Z,2029.00
2023-03-06T08:43:19.186Z,2052.00
2023-03-06T08:44:18.909Z,2049.00
2023-03-06T08:45:18.798Z,2032.00
2023-03-06T08:46:18.777Z,2038.00
2023-03-06T08:47:18.934Z,2078.00
2023-03-06T08:48:18.900Z,2143.00
2023-03-06T08:49:18.535Z,2229.00
2023-03-06T08:50:18.525Z,2307.00
2023-03-06T08:51:18.441Z,2407.00
2023-03-06T08:52:20.097Z,2445.00
2023-03-06T08:53:18.268Z,2494.00
2023-03-06T08:54:18.931Z,2518.00
2023-03-06T08:55:18.086Z,2539.00
2023-03-06T08:56:18.108Z,2579.00
2023-03-06T08:57:18.526Z,2627.00
2023-03-06T08:58:18.043Z,2646.00
2023-03-06T08:59:17.909Z,2675.00
2023-03-06T09:00:17.754Z,2698.00
2023-03-06T09:01:17.731Z,2714.00
2023-03-06T09:02:17.841Z,2787.00
2023-03-06T09:03:17.586Z,2789.00
2023-03-06T09:04:17.488Z,2801.00
2023-03-06T09:05:17.508Z,2849.00
2023-03-06T09:06:17.313Z,2932.00
2023-03-06T09:07:17.247Z,2795.00
2023-03-06T09:08:17.204Z,2821.00
2023-03-06T09:09:17.220Z,2890.00
2023-03-06T09:10:17.154Z,2977.00
2023-03-06T09:11:17.447Z,3106.00
2023-03-06T09:12:16.966Z,2799.00
2023-03-06T09:13:17.491Z,2799.00
2023-03-06T09:14:17.134Z,2840.00
2023-03-06T09:15:16.804Z,2801.00
2023-03-06T09:16:16.709Z,2851.00
2023-03-06T09:17:16.681Z,2936.00
2023-03-06T09:18:16.512Z,3057.00
2023-03-06T09:19:16.459Z,3221.00
2023-03-06T09:20:16.303Z,3257.00
2023-03-06T09:21:16.208Z,3244.00
2023-03-06T09:22:16.132Z,3243.00
2023-03-06T09:23:16.044Z,3207.00
2023-03-06T09:24:15.975Z,3204.00
2023-03-06T09:25:15.876Z,3196.00
2023-03-06T09:26:15.811Z,3178.00
2023-03-06T09:27:15.768Z,3185.00
2023-03-06T09:28:15.750Z,3167.00
2023-03-06T09:29:15.653Z,3169.00
2023-03-06T09:30:15.509Z,3155.00
2023-03-06T09:31:15.513Z,3155.00
2023-03-06T09:32:15.442Z,3142.00
2023-03-06T09:36:17.974Z,3135.00
2023-03-06T09:41:14.702Z,3102.00
2023-03-06T09:42:14.568Z,3065.00
2023-03-06T09:43:14.464Z,3051.00
2023-03-06T09:44:14.407Z,3015.00
2023-03-06T09:45:14.421Z,2992.00
2023-03-06T09:46:14.438Z,2992.00
2023-03-06T09:47:14.192Z,2938.00
2023-03-06T09:48:14.096Z,2900.00
2023-03-06T09:49:14.061Z,2891.00
2023-03-06T09:50:15.335Z,2891.00
2023-03-06T09:51:13.864Z,2885.00
2023-03-06T09:52:13.846Z,2846.00
2023-03-06T09:53:13.897Z,2846.00
2023-03-06T09:54:13.629Z,2849.00
2023-03-06T09:55:13.534Z,2818.00
2023-03-06T09:56:13.606Z,2804.00
2023-03-06T09:57:13.489Z,2798.00
2023-03-06T09:58:13.336Z,2753.00
2023-03-06T09:59:13.211Z,2704.00
2023-03-06T10:00:13.468Z,2688.00
2023-03-06T10:01:13.026Z,2659.00
2023-03-06T10:02:13.045Z,2600.00
2023-03-06T10:03:13.067Z,2549.00
2023-03-06T10:04:12.881Z,2554.00
2023-03-06T10:05:12.845Z,2524.00
2023-03-06T10:06:12.611Z,2473.00
2023-03-06T10:07:12.529Z,2455.00
2023-03-06T10:08:12.440Z,2438.00
2023-03-06T10:09:12.320Z,2410.00
2023-03-06T10:10:12.256Z,2386.00
2023-03-06T10:11:12.191Z,2376.00
2023-03-06T10:12:12.052Z,2348.00
2023-03-06T10:13:12.036Z,2325.00
2023-03-06T10:14:11.928Z,2292.00
2023-03-06T10:15:11.867Z,2263.00
2023-03-06T10:16:11.777Z,2283.00
2023-03-06T10:17:11.609Z,2287.00
2023-03-06T10:18:11.537Z,2298.00
2023-03-06T10:19:11.475Z,2299.00
2023-03-06T10:20:11.385Z,2282.00
2023-03-06T10:21:18.977Z,2310.00
2023-03-06T10:22:12.187Z,2310.00
2023-03-06T10:23:12.011Z,2314.00
2023-03-06T10:24:11.067Z,2324.00
2023-03-06T10:25:10.945Z,2344.00
2023-03-06T10:26:10.981Z,2361.00
2023-03-06T10:27:10.832Z,2368.00
2023-03-06T10:28:10.677Z,2336.00
2023-03-06T10:29:10.630Z,2361.00
2023-03-06T10:30:10.545Z,2359.00
2023-03-06T10:31:10.729Z,2345.00
2023-03-06T10:32:10.968Z,2365.00
2023-03-06T10:33:10.990Z,2355.00
2023-03-06T10:34:10.146Z,2391.00
2023-03-06T10:35:10.156Z,2359.00
2023-03-06T10:36:10.009Z,2359.00
2023-03-06T10:46:09.168Z,2384.00
2023-03-06T10:51:17.752Z,2494.00
2023-03-06T10:53:08.508Z,2500.00
2023-03-06T10:54:08.496Z,2509.00
2023-03-06T10:55:08.421Z,2521.00
2023-03-06T10:56:08.468Z,2526.00
2023-03-06T10:57:08.165Z,2531.00
2023-03-06T10:58:08.103Z,2539.00
2023-03-06T10:59:08.006Z,2554.00
2023-03-06T11:00:07.998Z,2553.00
2023-03-06T11:01:07.805Z,2542.00
2023-03-06T11:02:08.484Z,2553.00
2023-03-06T11:03:07.895Z,2548.00
2023-03-06T11:04:07.600Z,2540.00
2023-03-06T11:05:07.467Z,2556.00
2023-03-06T11:06:07.390Z,2549.00
2023-03-06T11:07:07.262Z,2548.00
2023-03-06T11:08:07.218Z,2550.00
2023-03-06T11:09:07.191Z,2550.00
2023-03-06T11:10:07.046Z,2552.00
2023-03-06T11:11:06.960Z,2555.00
2023-03-06T11:13:06.816Z,2557.00
2023-03-06T11:14:06.658Z,2549.00
2023-03-06T11:15:07.496Z,2541.00
2023-03-06T11:16:06.549Z,2556.00
2023-03-06T11:17:07.643Z,2547.00
2023-03-06T11:18:07.369Z,2554.00
2023-03-06T11:19:06.233Z,2542.00
2023-03-06T11:20:06.170Z,2539.00
2023-03-06T11:21:06.057Z,2544.00
2023-03-06T11:22:06.506Z,2545.00
2023-03-06T11:23:05.870Z,2545.00
2023-03-06T11:24:14.520Z,2530.00
2023-03-06T11:47:53.266Z,536.00
2023-03-06T12:15:52.541Z,553.00
2023-03-06T12:17:52.332Z,553.00
2023-03-06T12:18:52.466Z,551.00
2023-03-06T12:19:52.248Z,558.00
2023-03-06T12:20:52.234Z,544.00
2023-03-06T12:21:52.378Z,540.00
2023-03-06T12:22:58.176Z,546.00
2023-03-06T12:59:51.158Z,559.00
2023-03-06T13:00:55.290Z,556.00
2023-03-06T13:01:52.021Z,556.00
2023-03-06T13:02:50.868Z,557.00
2023-03-06T13:03:50.796Z,558.00
2023-03-06T13:04:50.808Z,561.00
2023-03-06T13:05:50.784Z,559.00
2023-03-06T13:06:51.507Z,569.00
2023-03-06T13:07:50.719Z,563.00
2023-03-06T13:08:50.641Z,564.00
2023-03-06T13:09:50.603Z,556.00
2023-03-06T13:10:50.553Z,562.00
2023-03-06T13:11:50.914Z,566.00
2023-03-06T13:12:50.913Z,558.00
2023-03-06T13:13:50.454Z,564.00
2023-03-06T13:14:54.680Z,568.00
2023-03-06T13:15:50.443Z,568.00
2023-03-06T13:16:50.392Z,568.00
2023-03-06T13:17:50.717Z,565.00
2023-03-06T13:18:50.357Z,562.00
2023-03-06T13:19:50.222Z,564.00
2023-03-06T13:20:50.205Z,560.00
2023-03-06T13:21:50.156Z,569.00
2023-03-06T13:22:50.143Z,564.00
2023-03-06T13:23:52.856Z,568.00
2023-03-06T13:24:52.641Z,570.00
2023-03-06T13:25:50.076Z,570.00
2023-03-06T13:26:49.989Z,570.00
2023-03-06T13:27:50.966Z,563.00
2023-03-06T13:28:50.010Z,564.00
2023-03-06T13:48:51.384Z,400.00
2023-03-06T13:49:50.224Z,400.00
2023-03-06T13:50:50.048Z,400.00
2023-03-06T13:51:50.056Z,400.00
2023-03-06T13:52:50.092Z,400.00
2023-03-06T13:53:50.152Z,400.00
2023-03-06T13:54:50.178Z,470.00
2023-03-06T13:55:50.144Z,628.00
2023-03-06T13:56:50.167Z,1021.00
2023-03-06T13:57:50.210Z,1215.00
2023-03-06T13:58:50.238Z,1172.00
2023-03-06T13:59:54.430Z,1262.00
2023-03-06T14:00:51.226Z,1263.00
2023-03-06T14:01:50.333Z,1270.00
2023-03-06T14:02:50.258Z,1264.00
2023-03-06T14:03:50.317Z,1284.00
2023-03-06T14:04:50.241Z,1323.00
2023-03-06T14:05:50.229Z,1334.00
2023-03-06T14:06:50.225Z,1474.00
2023-03-06T14:07:50.200Z,1537.00
2023-03-06T14:08:50.277Z,1544.00
2023-03-06T14:09:50.152Z,1599.00
2023-03-06T14:10:50.200Z,1536.00
2023-03-06T14:11:50.161Z,1684.00
2023-03-06T14:12:50.125Z,1790.00
2023-03-06T14:13:50.157Z,1837.00
2023-03-06T14:14:50.250Z,1840.00
2023-03-06T14:15:50.145Z,1851.00
2023-03-06T14:16:50.765Z,1901.00
2023-03-06T14:17:50.143Z,1948.00
2023-03-06T14:18:50.126Z,2060.00
2023-03-06T14:19:50.064Z,2092.00
2023-03-06T14:20:50.111Z,2131.00
2023-03-06T14:21:50.007Z,2162.00
2023-03-06T14:22:50.174Z,2165.00
2023-03-06T14:23:49.967Z,2181.00
2023-03-06T14:24:50.005Z,2223.00
2023-03-06T14:25:49.969Z,2257.00
2023-03-06T14:26:50.418Z,2346.00
2023-03-06T14:28:50.958Z,2301.00
2023-03-06T14:30:49.919Z,2484.00
2023-03-06T14:31:50.846Z,2471.00
2023-03-06T14:42:50.354Z,2518.00
2023-03-06T14:43:50.353Z,2553.00
2023-03-06T14:56:52.364Z,2699.00
2023-03-06T15:01:50.530Z,2673.00
2023-03-06T15:24:50.998Z,2758.00
2023-03-06T17:07:46.582Z,2950.00
2023-03-06T17:08:46.552Z,2966.00
2023-03-06T17:09:46.537Z,2948.00
2023-03-06T17:11:46.469Z,2946.00
2023-03-06T17:13:46.407Z,2947.00
2023-03-06T17:14:46.394Z,2942.00
2023-03-06T17:15:46.477Z,2940.00
2023-03-06T17:16:46.462Z,2935.00
2023-03-06T17:17:46.340Z,2943.00
2023-03-06T17:19:46.315Z,2923.00
2023-03-06T17:20:46.377Z,2928.00
2023-03-06T17:21:46.346Z,2925.00
2023-03-06T17:22:46.241Z,2921.00
2023-03-06T17:23:46.946Z,2920.00
2023-03-06T17:24:46.156Z,2930.00
2023-03-06T17:26:46.101Z,2919.00
2023-03-06T17:27:46.070Z,2928.00
2023-03-06T17:29:46.054Z,2920.00
2023-03-06T17:32:46.062Z,2920.00
2023-03-06T17:33:45.916Z,2906.00
2023-03-06T17:34:45.896Z,2905.00
2023-03-06T17:35:45.891Z,2903.00
2023-03-06T17:36:45.860Z,2901.00
2023-03-06T17:37:45.841Z,2900.00
2023-03-06T17:38:45.824Z,2890.00
2023-03-06T17:40:45.751Z,2898.00
2023-03-06T17:41:46.544Z,2887.00
2023-03-06T17:42:45.830Z,2882.00
2023-03-06T17:43:45.685Z,2890.00
2023-03-06T17:44:45.710Z,2889.00
2023-03-06T17:45:45.694Z,2873.00
2023-03-06T17:46:45.682Z,2894.00
2023-03-06T17:47:48.001Z,2876.00
2023-03-06T17:48:45.646Z,2888.00
2023-03-06T17:49:45.838Z,2871.00
2023-03-06T17:50:45.580Z,2870.00
2023-03-06T17:51:45.539Z,2870.00
2023-03-06T17:52:45.538Z,2865.00
2023-03-06T17:53:45.512Z,2863.00
2023-03-06T17:54:45.482Z,2857.00
2023-03-06T17:55:45.457Z,2864.00
2023-03-06T17:56:45.444Z,2861.00
2023-03-06T17:57:45.435Z,2856.00
2023-03-06T17:58:45.421Z,2849.00
2023-03-06T17:59:45.386Z,2851.00
2023-03-06T18:00:45.419Z,2841.00
2023-03-06T18:01:45.398Z,2854.00
2023-03-06T18:02:45.425Z,2843.00
2023-03-06T18:03:45.336Z,2839.00
2023-03-06T18:04:45.368Z,2840.00
2023-03-06T18:05:45.301Z,2843.00
2023-03-06T18:06:45.276Z,2846.00
2023-03-06T18:07:45.256Z,2842.00
2023-03-06T18:08:45.232Z,2847.00
2023-03-06T18:09:45.168Z,2845.00
2023-03-06T18:10:45.182Z,2839.00
2023-03-06T18:11:45.157Z,2821.00
2023-03-06T18:12:45.110Z,2831.00
2023-03-06T18:13:45.105Z,2818.00
2023-03-06T18:14:45.051Z,2817.00
2023-03-06T18:15:45.033Z,2824.00
2023-03-06T18:16:45.000Z,2825.00
2023-03-06T18:17:45.104Z,2816.00
2023-03-06T18:18:45.077Z,2806.00
2023-03-06T18:19:44.936Z,2803.00
2023-03-06T18:20:47.104Z,2799.00
2023-03-06T18:21:44.901Z,2798.00
2023-03-06T18:22:44.900Z,2791.00
2023-03-06T18:23:44.858Z,2794.00
2023-03-06T18:24:44.815Z,2778.00
2023-03-06T18:25:44.781Z,2775.00
2023-03-06T18:26:44.796Z,2772.00
2023-03-06T18:27:44.747Z,2770.00
2023-03-06T18:28:44.769Z,2764.00
2023-03-06T18:29:44.718Z,2756.00
2023-03-06T18:30:44.689Z,2760.00
2023-03-06T18:31:44.859Z,2750.00
2023-03-06T18:32:44.779Z,2742.00
2023-03-06T18:33:44.616Z,2743.00
2023-03-06T18:34:44.782Z,2743.00
2023-03-06T18:35:44.642Z,2739.00
2023-03-06T18:36:44.611Z,2724.00
2023-03-06T18:37:44.620Z,2715.00
2023-03-06T18:38:44.589Z,2712.00
2023-03-06T18:40:44.574Z,2717.00
2023-03-06T18:41:44.545Z,2726.00
2023-03-06T18:42:44.616Z,2731.00
2023-03-06T18:43:44.493Z,2739.00
2023-03-06T18:44:44.534Z,2755.00
2023-03-06T18:45:44.520Z,2763.00
2023-03-06T18:46:44.499Z,2752.00
2023-03-06T18:47:44.434Z,2747.00
2023-03-06T18:48:44.409Z,2743.00
2023-03-06T18:49:44.415Z,2737.00
2023-03-06T18:50:44.394Z,2729.00
2023-03-06T18:51:44.370Z,2727.00
2023-03-06T18:52:44.434Z,2740.00
2023-03-06T18:53:44.376Z,2728.00
2023-03-06T18:54:44.305Z,2724.00
2023-03-06T18:55:44.295Z,2731.00
2023-03-06T18:56:44.277Z,2730.00
2023-03-06T18:57:44.261Z,2721.00
2023-03-06T18:58:44.301Z,2736.00
2023-03-06T18:59:44.226Z,2727.00
2023-03-06T19:00:44.309Z,2710.00
2023-03-06T19:01:44.208Z,2709.00
2023-03-06T19:02:44.185Z,2716.00
2023-03-06T19:03:44.194Z,2713.00
2023-03-06T19:04:44.162Z,2711.00
2023-03-06T19:05:44.116Z,2727.00
2023-03-06T19:06:44.113Z,2716.00
2023-03-06T19:07:44.162Z,2698.00
2023-03-06T19:08:44.077Z,2710.00
2023-03-06T19:09:44.114Z,2704.00
2023-03-06T19:10:44.056Z,2698.00
2023-03-06T19:11:44.031Z,2699.00
2023-03-06T19:12:44.036Z,2697.00
2023-03-06T19:13:44.478Z,2691.00
2023-03-06T19:14:43.978Z,2686.00
2023-03-06T19:15:43.968Z,2704.00
2023-03-06T19:16:43.962Z,2692.00
2023-03-06T19:17:43.935Z,2685.00
2023-03-06T19:18:43.973Z,2693.00
2023-03-06T19:19:43.908Z,2691.00
2023-03-06T19:20:43.912Z,2689.00
2023-03-06T19:21:43.874Z,2682.00
2023-03-06T19:22:43.874Z,2683.00
2023-03-06T19:23:43.887Z,2680.00
2023-03-06T19:24:43.873Z,2680.00
2023-03-06T19:25:43.780Z,2683.00
2023-03-06T19:26:43.822Z,2676.00
2023-03-06T19:27:43.768Z,2670.00
2023-03-06T19:28:43.741Z,2673.00
2023-03-06T19:29:43.764Z,2687.00
2023-03-06T19:30:43.711Z,2676.00
2023-03-06T19:31:43.740Z,2675.00
2023-03-06T19:32:43.713Z,2675.00
2023-03-06T19:33:43.666Z,2673.00
2023-03-06T19:34:43.648Z,2667.00
2023-03-06T19:35:43.745Z,2662.00
2023-03-06T19:36:43.585Z,2655.00
2023-03-06T19:37:43.564Z,2655.00
2023-03-06T19:38:43.555Z,2660.00
2023-03-06T19:39:43.535Z,2662.00
2023-03-06T19:40:43.503Z,2661.00
2023-03-06T19:41:43.522Z,2658.00
2023-03-06T19:42:43.508Z,2655.00
2023-03-06T19:43:43.461Z,2651.00
2023-03-06T19:44:43.468Z,2661.00
2023-03-06T19:45:43.466Z,2648.00
2023-03-06T19:46:43.406Z,2649.00
2023-03-06T19:47:43.399Z,2642.00
2023-03-06T19:48:43.376Z,2647.00
2023-03-06T19:49:43.366Z,2641.00
2023-03-06T19:50:43.364Z,2644.00
2023-03-06T19:51:43.355Z,2652.00
2023-03-06T19:52:43.296Z,2639.00
2023-03-06T19:53:43.306Z,2641.00
2023-03-06T19:54:43.308Z,2618.00
2023-03-06T19:55:43.391Z,2633.00
2023-03-06T19:56:43.248Z,2633.00
2023-03-06T19:57:43.241Z,2630.00
2023-03-06T19:58:43.220Z,2619.00
2023-03-06T19:59:43.199Z,2633.00
2023-03-06T20:00:43.185Z,2621.00
2023-03-06T20:01:43.197Z,2619.00
2023-03-06T20:02:43.144Z,2626.00
2023-03-06T20:03:43.164Z,2620.00
2023-03-06T20:04:43.190Z,2613.00
2023-03-06T20:05:43.119Z,2610.00
2023-03-06T20:06:43.200Z,2618.00
2023-03-06T20:07:43.086Z,2621.00
2023-03-06T20:08:43.142Z,2609.00
2023-03-06T20:09:43.110Z,2603.00
2023-03-06T20:10:43.048Z,2609.00
2023-03-06T20:11:43.048Z,2600.00
2023-03-06T20:12:43.009Z,2597.00
2023-03-06T20:13:47.384Z,2593.00
2023-03-06T20:14:43.020Z,2594.00
2023-03-06T20:15:43.053Z,2596.00
2023-03-06T20:16:43.042Z,2597.00
2023-03-06T20:17:42.970Z,2599.00
2023-03-06T20:18:42.937Z,2603.00
2023-03-06T20:19:43.070Z,2596.00
2023-03-06T20:20:42.951Z,2608.00
2023-03-06T20:21:42.894Z,2595.00
2023-03-06T20:22:42.866Z,2594.00
2023-03-06T20:23:42.853Z,2598.00
2023-03-06T20:24:42.881Z,2587.00
2023-03-06T20:25:42.833Z,2586.00
2023-03-06T20:26:42.798Z,2584.00
2023-03-06T20:27:42.779Z,2584.00
2023-03-06T20:28:42.785Z,2589.00
2023-03-06T20:29:42.825Z,2578.00
2023-03-06T20:30:42.771Z,2587.00
2023-03-06T20:31:42.819Z,2575.00
2023-03-06T20:32:42.732Z,2584.00
2023-03-06T20:33:42.710Z,2578.00